sensor_id;sensor_type;location;lat;lon;timestamp;temperature;humidity
1680;DHT22;838;51.794;12.258;2023-04-01T00:01:32;11.30;40.50
1680;DHT22;838;51.794;12.258;2023-04-01T00:03:58;11.20;41.40
1680;DHT22;838;51.794;12.258;2023-04-01T00:06:24;11.20;42.90
1680;DHT22;838;51.794;12.258;2023-04-01T00:08:52;11.10;42.90
1680;DHT22;838;51.794;12.258;2023-04-01T00:11:18;11.20;41.90
1680;DHT22;838;51.794;12.258;2023-04-01T00:13:44;11.20;41.90
1680;DHT22;838;51.794;12.258;2023-04-01T00:16:11;11.20;42.20
1680;DHT22;838;51.794;12.258;2023-04-01T00:18:37;11.30;42.30
1680;DHT22;838;51.794;12.258;2023-04-01T00:21:04;11.20;42.00
1680;DHT22;838;51.794;12.258;2023-04-01T00:23:30;11.20;42.90
1680;DHT22;838;51.794;12.258;2023-04-01T00:25:59;11.20;41.20
1680;DHT22;838;51.794;12.258;2023-04-01T00:28:25;11.20;41.90
1680;DHT22;838;51.794;12.258;2023-04-01T00:30:51;11.20;41.60
1680;DHT22;838;51.794;12.258;2023-04-01T00:33:17;11.20;43.90
1680;DHT22;838;51.794;12.258;2023-04-01T00:35:43;11.30;41.50
1680;DHT22;838;51.794;12.258;2023-04-01T00:38:10;11.30;42.10
1680;DHT22;838;51.794;12.258;2023-04-01T00:40:44;11.40;41.40
1680;DHT22;838;51.794;12.258;2023-04-01T00:43:19;11.40;40.50
1680;DHT22;838;51.794;12.258;2023-04-01T00:45:46;11.50;39.90
1680;DHT22;838;51.794;12.258;2023-04-01T00:48:22;11.50;40.30
1680;DHT22;838;51.794;12.258;2023-04-01T00:51:07;11.40;40.60
1680;DHT22;838;51.794;12.258;2023-04-01T00:53:36;11.30;41.90
1680;DHT22;838;51.794;12.258;2023-04-01T00:56:07;11.30;40.60
1680;DHT22;838;51.794;12.258;2023-04-01T00:58:38;11.30;41.50
1680;DHT22;838;51.794;12.258;2023-04-01T01:01:06;11.10;42.20
1680;DHT22;838;51.794;12.258;2023-04-01T01:03:33;11.10;43.40
1680;DHT22;838;51.794;12.258;2023-04-01T01:06:09;11.10;43.10
1680;DHT22;838;51.794;12.258;2023-04-01T01:11:05;11.10;42.90
1680;DHT22;838;51.794;12.258;2023-04-01T01:13:40;11.00;44.00
1680;DHT22;838;51.794;12.258;2023-04-01T01:16:17;11.00;44.90
1680;DHT22;838;51.794;12.258;2023-04-01T01:22:24;11.10;45.10
1680;DHT22;838;51.794;12.258;2023-04-01T01:25:08;11.30;44.30
1680;DHT22;838;51.794;12.258;2023-04-01T01:27:40;11.30;41.40
1680;DHT22;838;51.794;12.258;2023-04-01T01:30:28;11.20;42.80
1680;DHT22;838;51.794;12.258;2023-04-01T01:33:09;11.20;42.60
1680;DHT22;838;51.794;12.258;2023-04-01T01:35:50;11.10;42.70
1680;DHT22;838;51.794;12.258;2023-04-01T01:38:21;11.10;44.00
1680;DHT22;838;51.794;12.258;2023-04-01T01:40:50;11.10;43.10
1680;DHT22;838;51.794;12.258;2023-04-01T01:43:22;11.00;42.90
1680;DHT22;838;51.794;12.258;2023-04-01T01:45:52;11.00;44.70
1680;DHT22;838;51.794;12.258;2023-04-01T01:48:19;11.00;44.20
1680;DHT22;838;51.794;12.258;2023-04-01T01:50:46;11.00;44.00
1680;DHT22;838;51.794;12.258;2023-04-01T01:53:13;11.00;45.50
1680;DHT22;838;51.794;12.258;2023-04-01T01:55:42;10.90;44.50
1680;DHT22;838;51.794;12.258;2023-04-01T02:01:09;10.90;46.00
1680;DHT22;838;51.794;12.258;2023-04-01T02:03:37;10.80;47.10
1680;DHT22;838;51.794;12.258;2023-04-01T02:06:07;10.80;47.40
1680;DHT22;838;51.794;12.258;2023-04-01T02:08:42;10.80;46.80
1680;DHT22;838;51.794;12.258;2023-04-01T02:11:12;10.80;47.70
1680;DHT22;838;51.794;12.258;2023-04-01T02:19:06;11.10;47.30
1680;DHT22;838;51.794;12.258;2023-04-01T02:21:33;11.20;43.40
1680;DHT22;838;51.794;12.258;2023-04-01T02:24:04;11.20;42.60
1680;DHT22;838;51.794;12.258;2023-04-01T02:26:30;11.20;44.00
1680;DHT22;838;51.794;12.258;2023-04-01T02:28:56;11.40;42.70
1680;DHT22;838;51.794;12.258;2023-04-01T02:31:24;11.50;41.80
1680;DHT22;838;51.794;12.258;2023-04-01T02:33:52;11.50;39.40
1680;DHT22;838;51.794;12.258;2023-04-01T02:36:18;11.40;40.60
1680;DHT22;838;51.794;12.258;2023-04-01T02:38:45;11.40;40.40
1680;DHT22;838;51.794;12.258;2023-04-01T02:41:12;11.40;40.60
1680;DHT22;838;51.794;12.258;2023-04-01T02:43:37;11.20;41.30
1680;DHT22;838;51.794;12.258;2023-04-01T02:46:03;11.30;42.50
1680;DHT22;838;51.794;12.258;2023-04-01T02:48:29;11.50;40.20
1680;DHT22;838;51.794;12.258;2023-04-01T02:50:55;11.50;39.30
1680;DHT22;838;51.794;12.258;2023-04-01T02:53:21;11.40;40.10
1680;DHT22;838;51.794;12.258;2023-04-01T02:55:47;11.40;39.70
1680;DHT22;838;51.794;12.258;2023-04-01T02:58:16;11.40;40.40
1680;DHT22;838;51.794;12.258;2023-04-01T03:00:42;11.50;38.80
1680;DHT22;838;51.794;12.258;2023-04-01T03:03:09;11.50;38.80
1680;DHT22;838;51.794;12.258;2023-04-01T03:05:34;11.50;38.50
1680;DHT22;838;51.794;12.258;2023-04-01T03:08:01;11.30;39.50
1680;DHT22;838;51.794;12.258;2023-04-01T03:10:26;11.20;40.40
1680;DHT22;838;51.794;12.258;2023-04-01T03:12:52;11.20;41.40
1680;DHT22;838;51.794;12.258;2023-04-01T03:15:18;11.20;40.30
1680;DHT22;838;51.794;12.258;2023-04-01T03:17:44;11.10;41.00
1680;DHT22;838;51.794;12.258;2023-04-01T03:20:11;11.20;42.30
1680;DHT22;838;51.794;12.258;2023-04-01T03:22:37;11.20;41.00
1680;DHT22;838;51.794;12.258;2023-04-01T03:25:04;11.10;40.70
1680;DHT22;838;51.794;12.258;2023-04-01T03:27:30;11.10;41.70
1680;DHT22;838;51.794;12.258;2023-04-01T03:29:55;11.20;42.10
1680;DHT22;838;51.794;12.258;2023-04-01T03:32:21;11.40;40.40
1680;DHT22;838;51.794;12.258;2023-04-01T03:34:47;11.40;39.00
1680;DHT22;838;51.794;12.258;2023-04-01T03:37:13;11.30;40.50
1680;DHT22;838;51.794;12.258;2023-04-01T03:39:39;11.20;40.40
1680;DHT22;838;51.794;12.258;2023-04-01T03:42:05;11.10;40.30
1680;DHT22;838;51.794;12.258;2023-04-01T03:44:32;11.20;40.80
1680;DHT22;838;51.794;12.258;2023-04-01T03:46:59;11.10;41.10
1680;DHT22;838;51.794;12.258;2023-04-01T03:49:25;11.00;42.50
1680;DHT22;838;51.794;12.258;2023-04-01T03:51:51;10.90;42.90
1680;DHT22;838;51.794;12.258;2023-04-01T03:54:17;10.90;44.20
1680;DHT22;838;51.794;12.258;2023-04-01T03:56:44;10.80;44.50
1680;DHT22;838;51.794;12.258;2023-04-01T03:59:11;10.80;45.60
1680;DHT22;838;51.794;12.258;2023-04-01T04:01:37;10.80;46.00
1680;DHT22;838;51.794;12.258;2023-04-01T04:04:03;10.80;45.30
1680;DHT22;838;51.794;12.258;2023-04-01T04:06:29;10.80;45.70
1680;DHT22;838;51.794;12.258;2023-04-01T04:08:55;10.80;45.40
1680;DHT22;838;51.794;12.258;2023-04-01T04:11:21;10.70;46.90
1680;DHT22;838;51.794;12.258;2023-04-01T04:13:47;10.70;47.60
1680;DHT22;838;51.794;12.258;2023-04-01T04:16:14;10.80;46.50
1680;DHT22;838;51.794;12.258;2023-04-01T04:18:40;10.70;46.80
1680;DHT22;838;51.794;12.258;2023-04-01T04:21:06;10.70;47.90
1680;DHT22;838;51.794;12.258;2023-04-01T04:23:32;10.80;47.30
1680;DHT22;838;51.794;12.258;2023-04-01T04:26:07;10.80;46.00
1680;DHT22;838;51.794;12.258;2023-04-01T04:28:33;10.80;48.20
1680;DHT22;838;51.794;12.258;2023-04-01T04:30:59;10.80;46.80
1680;DHT22;838;51.794;12.258;2023-04-01T04:33:26;10.70;46.30
1680;DHT22;838;51.794;12.258;2023-04-01T04:35:55;10.70;47.50
1680;DHT22;838;51.794;12.258;2023-04-01T04:38:21;10.60;47.90
1680;DHT22;838;51.794;12.258;2023-04-01T04:40:46;10.70;48.70
1680;DHT22;838;51.794;12.258;2023-04-01T04:43:14;10.60;49.30
1680;DHT22;838;51.794;12.258;2023-04-01T04:45:40;10.70;48.20
1680;DHT22;838;51.794;12.258;2023-04-01T04:48:11;10.60;48.60
1680;DHT22;838;51.794;12.258;2023-04-01T04:50:41;10.60;48.60
1680;DHT22;838;51.794;12.258;2023-04-01T04:53:10;10.50;49.10
1680;DHT22;838;51.794;12.258;2023-04-01T04:55:36;10.40;50.80
1680;DHT22;838;51.794;12.258;2023-04-01T04:58:02;10.50;50.90
1680;DHT22;838;51.794;12.258;2023-04-01T05:00:27;10.40;51.00
1680;DHT22;838;51.794;12.258;2023-04-01T05:02:53;10.40;51.80
1680;DHT22;838;51.794;12.258;2023-04-01T05:05:19;10.40;51.00
1680;DHT22;838;51.794;12.258;2023-04-01T05:07:44;10.40;53.30
1680;DHT22;838;51.794;12.258;2023-04-01T05:10:10;10.40;52.50
1680;DHT22;838;51.794;12.258;2023-04-01T05:12:36;10.40;53.20
1680;DHT22;838;51.794;12.258;2023-04-01T05:15:05;10.60;52.40
1680;DHT22;838;51.794;12.258;2023-04-01T05:17:31;10.50;51.30
1680;DHT22;838;51.794;12.258;2023-04-01T05:19:57;10.60;53.60
1680;DHT22;838;51.794;12.258;2023-04-01T05:22:23;10.70;51.40
1680;DHT22;838;51.794;12.258;2023-04-01T05:24:48;10.80;49.80
1680;DHT22;838;51.794;12.258;2023-04-01T05:27:14;10.90;48.10
1680;DHT22;838;51.794;12.258;2023-04-01T05:29:40;10.90;48.00
1680;DHT22;838;51.794;12.258;2023-04-01T05:32:06;10.80;48.80
1680;DHT22;838;51.794;12.258;2023-04-01T05:34:32;10.80;48.40
1680;DHT22;838;51.794;12.258;2023-04-01T05:36:57;10.80;48.80
1680;DHT22;838;51.794;12.258;2023-04-01T05:39:23;10.70;49.70
1680;DHT22;838;51.794;12.258;2023-04-01T05:41:49;10.90;50.10
1680;DHT22;838;51.794;12.258;2023-04-01T05:44:15;10.80;47.50
1680;DHT22;838;51.794;12.258;2023-04-01T05:46:41;10.80;49.00
1680;DHT22;838;51.794;12.258;2023-04-01T05:49:07;10.80;50.10
1680;DHT22;838;51.794;12.258;2023-04-01T05:51:32;10.80;49.10
1680;DHT22;838;51.794;12.258;2023-04-01T05:53:58;10.90;48.60
1680;DHT22;838;51.794;12.258;2023-04-01T05:56:24;10.90;49.40
1680;DHT22;838;51.794;12.258;2023-04-01T05:58:52;10.90;48.50
1680;DHT22;838;51.794;12.258;2023-04-01T06:01:19;10.90;49.80
1680;DHT22;838;51.794;12.258;2023-04-01T06:03:45;10.90;49.30
1680;DHT22;838;51.794;12.258;2023-04-01T06:06:16;11.00;47.10
1680;DHT22;838;51.794;12.258;2023-04-01T06:08:44;11.00;47.50
1680;DHT22;838;51.794;12.258;2023-04-01T06:11:23;11.00;47.90
1680;DHT22;838;51.794;12.258;2023-04-01T06:20:09;11.10;47.90
1680;DHT22;838;51.794;12.258;2023-04-01T06:52:47;12.10;42.00
1680;DHT22;838;51.794;12.258;2023-04-01T06:55:26;12.20;41.30
1680;DHT22;838;51.794;12.258;2023-04-01T06:57:56;12.20;41.60
1680;DHT22;838;51.794;12.258;2023-04-01T07:05:39;12.60;38.20
1680;DHT22;838;51.794;12.258;2023-04-01T07:08:10;12.80;38.80
1680;DHT22;838;51.794;12.258;2023-04-01T07:10:53;12.90;37.40
1680;DHT22;838;51.794;12.258;2023-04-01T07:13:47;13.00;36.40
1680;DHT22;838;51.794;12.258;2023-04-01T07:21:52;13.00;35.10
1680;DHT22;838;51.794;12.258;2023-04-01T07:24:33;13.10;35.60
1680;DHT22;838;51.794;12.258;2023-04-01T07:26:59;13.10;34.10
1680;DHT22;838;51.794;12.258;2023-04-01T07:29:25;13.10;34.80
1680;DHT22;838;51.794;12.258;2023-04-01T07:32:29;13.10;34.00
1680;DHT22;838;51.794;12.258;2023-04-01T07:35:12;13.20;34.10
1680;DHT22;838;51.794;12.258;2023-04-01T07:46:19;14.00;30.00
1680;DHT22;838;51.794;12.258;2023-04-01T07:49:20;14.10;29.60
1680;DHT22;838;51.794;12.258;2023-04-01T08:00:09;15.30;23.20
1680;DHT22;838;51.794;12.258;2023-04-01T08:05:29;15.30;21.00
1680;DHT22;838;51.794;12.258;2023-04-01T08:13:40;15.00;25.30
1680;DHT22;838;51.794;12.258;2023-04-01T08:18:41;15.00;24.50
1680;DHT22;838;51.794;12.258;2023-04-01T08:21:21;14.90;23.00
1680;DHT22;838;51.794;12.258;2023-04-01T08:23:52;15.10;22.80
1680;DHT22;838;51.794;12.258;2023-04-01T08:26:35;14.90;21.80
1680;DHT22;838;51.794;12.258;2023-04-01T08:29:31;14.50;22.50
1680;DHT22;838;51.794;12.258;2023-04-01T08:32:12;14.40;24.50
1680;DHT22;838;51.794;12.258;2023-04-01T08:34:45;14.40;23.70
1680;DHT22;838;51.794;12.258;2023-04-01T08:37:26;14.30;24.70
1680;DHT22;838;51.794;12.258;2023-04-01T08:40:02;14.30;24.40
1680;DHT22;838;51.794;12.258;2023-04-01T08:56:31;14.90;20.90
1680;DHT22;838;51.794;12.258;2023-04-01T09:04:25;15.10;20.10
1680;DHT22;838;51.794;12.258;2023-04-01T09:07:33;15.30;18.60
1680;DHT22;838;51.794;12.258;2023-04-01T09:15:47;15.90;17.70
1680;DHT22;838;51.794;12.258;2023-04-01T09:26:44;17.20;13.90
1680;DHT22;838;51.794;12.258;2023-04-01T09:32:10;17.70;10.30
1680;DHT22;838;51.794;12.258;2023-04-01T09:34:54;18.10;6.90
1680;DHT22;838;51.794;12.258;2023-04-01T09:46:04;17.50;7.60
1680;DHT22;838;51.794;12.258;2023-04-01T09:49:13;17.60;7.10
1680;DHT22;838;51.794;12.258;2023-04-01T09:52:08;17.30;5.70
1680;DHT22;838;51.794;12.258;2023-04-01T09:54:54;17.40;6.40
1680;DHT22;838;51.794;12.258;2023-04-01T10:12:22;16.80;3.60
1680;DHT22;838;51.794;12.258;2023-04-01T10:18:24;16.80;4.80
1680;DHT22;838;51.794;12.258;2023-04-01T10:21:22;17.00;4.40
1680;DHT22;838;51.794;12.258;2023-04-01T10:40:31;17.10;3.20
1680;DHT22;838;51.794;12.258;2023-04-01T10:54:47;16.50;5.70
1680;DHT22;838;51.794;12.258;2023-04-01T11:00:31;16.60;5.20
1680;DHT22;838;51.794;12.258;2023-04-01T11:06:23;17.00;5.70
1680;DHT22;838;51.794;12.258;2023-04-01T11:09:06;17.10;4.30
1680;DHT22;838;51.794;12.258;2023-04-01T11:26:04;16.90;1.80
1680;DHT22;838;51.794;12.258;2023-04-01T11:34:00;15.80;9.90
1680;DHT22;838;51.794;12.258;2023-04-01T11:39:17;15.10;17.20
1680;DHT22;838;51.794;12.258;2023-04-01T11:51:28;15.20;21.40
1680;DHT22;838;51.794;12.258;2023-04-01T11:54:00;15.50;21.00
1680;DHT22;838;51.794;12.258;2023-04-01T11:59:06;16.10;19.90
1680;DHT22;838;51.794;12.258;2023-04-01T12:02:14;16.00;17.00
1680;DHT22;838;51.794;12.258;2023-04-01T12:21:35;17.20;9.60
1680;DHT22;838;51.794;12.258;2023-04-01T12:32:40;18.10;4.40
1680;DHT22;838;51.794;12.258;2023-04-01T12:35:23;18.30;4.70
1680;DHT22;838;51.794;12.258;2023-04-01T12:38:22;18.30;4.10
1680;DHT22;838;51.794;12.258;2023-04-01T12:41:23;18.20;4.00
1680;DHT22;838;51.794;12.258;2023-04-01T12:44:02;17.90;5.60
1680;DHT22;838;51.794;12.258;2023-04-01T12:50:18;17.30;5.60
1680;DHT22;838;51.794;12.258;2023-04-01T13:14:59;15.20;14.10
1680;DHT22;838;51.794;12.258;2023-04-01T13:20:41;15.10;15.50
1680;DHT22;838;51.794;12.258;2023-04-01T13:26:13;15.20;14.60
1680;DHT22;838;51.794;12.258;2023-04-01T13:31:54;15.50;15.00
1680;DHT22;838;51.794;12.258;2023-04-01T13:40:02;15.90;10.90
1680;DHT22;838;51.794;12.258;2023-04-01T13:42:53;16.20;10.50
1680;DHT22;838;51.794;12.258;2023-04-01T13:48:29;16.50;9.70
1680;DHT22;838;51.794;12.258;2023-04-01T14:08:00;16.50;9.50
1680;DHT22;838;51.794;12.258;2023-04-01T14:10:40;16.50;8.90
1680;DHT22;838;51.794;12.258;2023-04-01T14:22:31;16.40;11.70
1680;DHT22;838;51.794;12.258;2023-04-01T14:43:47;16.10;11.70
1680;DHT22;838;51.794;12.258;2023-04-01T14:49:30;16.10;11.80
1680;DHT22;838;51.794;12.258;2023-04-01T14:52:05;16.00;12.20
1680;DHT22;838;51.794;12.258;2023-04-01T14:54:41;15.90;12.20
1680;DHT22;838;51.794;12.258;2023-04-01T14:57:22;15.80;13.20
1680;DHT22;838;51.794;12.258;2023-04-01T15:00:15;15.60;13.00
1680;DHT22;838;51.794;12.258;2023-04-01T15:02:57;15.50;13.40
1680;DHT22;838;51.794;12.258;2023-04-01T15:08:15;15.40;14.10
1680;DHT22;838;51.794;12.258;2023-04-01T15:25:43;14.90;15.80
1680;DHT22;838;51.794;12.258;2023-04-01T15:28:33;14.80;15.40
1680;DHT22;838;51.794;12.258;2023-04-01T15:39:13;13.80;20.30
1680;DHT22;838;51.794;12.258;2023-04-01T15:58:44;13.90;23.50
1680;DHT22;838;51.794;12.258;2023-04-01T16:06:46;13.70;24.90
1680;DHT22;838;51.794;12.258;2023-04-01T16:09:30;13.50;25.90
1680;DHT22;838;51.794;12.258;2023-04-01T16:12:18;13.50;26.90
1680;DHT22;838;51.794;12.258;2023-04-01T16:14:58;13.60;28.00
1680;DHT22;838;51.794;12.258;2023-04-01T16:20:42;13.40;30.70
1680;DHT22;838;51.794;12.258;2023-04-01T16:34:06;11.20;61.00
1680;DHT22;838;51.794;12.258;2023-04-01T16:37:17;11.00;64.40
1680;DHT22;838;51.794;12.258;2023-04-01T16:42:43;10.90;67.80
1680;DHT22;838;51.794;12.258;2023-04-01T16:45:33;10.80;67.10
1680;DHT22;838;51.794;12.258;2023-04-01T16:51:04;10.90;66.30
1680;DHT22;838;51.794;12.258;2023-04-01T16:53:42;10.80;62.10
1680;DHT22;838;51.794;12.258;2023-04-01T16:56:24;10.80;64.00
1680;DHT22;838;51.794;12.258;2023-04-01T16:59:19;10.70;60.10
1680;DHT22;838;51.794;12.258;2023-04-01T17:13:35;10.20;59.80
1680;DHT22;838;51.794;12.258;2023-04-01T17:16:10;10.10;60.70
1680;DHT22;838;51.794;12.258;2023-04-01T17:18:50;10.10;61.80
1680;DHT22;838;51.794;12.258;2023-04-01T17:24:27;10.20;61.10
1680;DHT22;838;51.794;12.258;2023-04-01T17:33:13;10.10;60.70
1680;DHT22;838;51.794;12.258;2023-04-01T17:38:34;10.10;58.80
1680;DHT22;838;51.794;12.258;2023-04-01T17:44:12;10.20;55.90
1680;DHT22;838;51.794;12.258;2023-04-01T17:55:04;9.50;58.80
1680;DHT22;838;51.794;12.258;2023-04-01T17:57:50;9.30;58.20
1680;DHT22;838;51.794;12.258;2023-04-01T18:00:55;9.10;60.20
1680;DHT22;838;51.794;12.258;2023-04-01T18:08:25;9.00;64.10
1680;DHT22;838;51.794;12.258;2023-04-01T18:13:54;9.00;63.70
1680;DHT22;838;51.794;12.258;2023-04-01T18:16:49;9.00;63.70
1680;DHT22;838;51.794;12.258;2023-04-01T18:19:46;9.00;64.70
1680;DHT22;838;51.794;12.258;2023-04-01T18:30:41;9.10;62.50
1680;DHT22;838;51.794;12.258;2023-04-01T18:33:59;9.10;61.00
1680;DHT22;838;51.794;12.258;2023-04-01T18:38:56;8.90;59.40
1680;DHT22;838;51.794;12.258;2023-04-01T18:42:07;8.80;61.10
1680;DHT22;838;51.794;12.258;2023-04-01T18:50:47;8.50;66.00
1680;DHT22;838;51.794;12.258;2023-04-01T18:53:28;8.60;65.00
1680;DHT22;838;51.794;12.258;2023-04-01T18:55:59;8.60;65.50
1680;DHT22;838;51.794;12.258;2023-04-01T18:58:33;8.70;65.00
1680;DHT22;838;51.794;12.258;2023-04-01T19:01:33;8.60;65.00
1680;DHT22;838;51.794;12.258;2023-04-01T19:06:48;8.50;64.10
1680;DHT22;838;51.794;12.258;2023-04-01T19:09:27;8.50;64.00
1680;DHT22;838;51.794;12.258;2023-04-01T19:12:17;8.50;64.30
1680;DHT22;838;51.794;12.258;2023-04-01T19:15:13;8.30;61.60
1680;DHT22;838;51.794;12.258;2023-04-01T19:18:40;8.20;64.00
1680;DHT22;838;51.794;12.258;2023-04-01T19:26:26;8.20;65.10
1680;DHT22;838;51.794;12.258;2023-04-01T19:28:55;8.30;66.50
1680;DHT22;838;51.794;12.258;2023-04-01T19:44:47;8.10;61.10
1680;DHT22;838;51.794;12.258;2023-04-01T19:52:54;8.00;64.40
1680;DHT22;838;51.794;12.258;2023-04-01T19:55:46;8.00;65.00
1680;DHT22;838;51.794;12.258;2023-04-01T19:58:18;8.00;63.30
1680;DHT22;838;51.794;12.258;2023-04-01T20:00:52;7.90;64.30
1680;DHT22;838;51.794;12.258;2023-04-01T20:09:34;7.90;64.00
1680;DHT22;838;51.794;12.258;2023-04-01T20:12:29;8.00;63.90
1680;DHT22;838;51.794;12.258;2023-04-01T20:15:02;7.70;62.90
1680;DHT22;838;51.794;12.258;2023-04-01T20:17:44;7.70;64.10
1680;DHT22;838;51.794;12.258;2023-04-01T20:25:29;7.70;64.10
1680;DHT22;838;51.794;12.258;2023-04-01T20:28:05;7.70;62.80
1680;DHT22;838;51.794;12.258;2023-04-01T20:39:06;7.50;63.00
1680;DHT22;838;51.794;12.258;2023-04-01T20:47:24;7.10;61.40
1680;DHT22;838;51.794;12.258;2023-04-01T20:53:15;7.10;63.60
1680;DHT22;838;51.794;12.258;2023-04-01T20:58:19;7.10;62.50
1680;DHT22;838;51.794;12.258;2023-04-01T21:04:02;7.00;61.80
1680;DHT22;838;51.794;12.258;2023-04-01T21:07:08;7.00;62.90
1680;DHT22;838;51.794;12.258;2023-04-01T21:09:51;6.90;63.40
1680;DHT22;838;51.794;12.258;2023-04-01T21:31:54;6.60;64.20
1680;DHT22;838;51.794;12.258;2023-04-01T21:43:06;6.40;64.20
1680;DHT22;838;51.794;12.258;2023-04-01T21:45:39;6.40;64.70
1680;DHT22;838;51.794;12.258;2023-04-01T21:59:33;6.50;63.10
1680;DHT22;838;51.794;12.258;2023-04-01T22:10:44;6.20;61.30
1680;DHT22;838;51.794;12.258;2023-04-01T22:13:26;6.20;61.90
1680;DHT22;838;51.794;12.258;2023-04-01T22:16:16;6.10;61.20
1680;DHT22;838;51.794;12.258;2023-04-01T22:21:55;6.00;62.40
1680;DHT22;838;51.794;12.258;2023-04-01T22:27:14;5.80;62.80
1680;DHT22;838;51.794;12.258;2023-04-01T22:30:06;5.80;62.50
1680;DHT22;838;51.794;12.258;2023-04-01T22:35:54;5.70;63.90
1680;DHT22;838;51.794;12.258;2023-04-01T22:42:41;5.70;62.00
1680;DHT22;838;51.794;12.258;2023-04-01T22:45:17;5.70;61.30
1680;DHT22;838;51.794;12.258;2023-04-01T22:48:18;5.70;59.60
1680;DHT22;838;51.794;12.258;2023-04-01T22:50:57;5.60;57.50
1680;DHT22;838;51.794;12.258;2023-04-01T22:53:56;5.60;58.70
1680;DHT22;838;51.794;12.258;2023-04-01T22:56:37;5.60;58.90
1680;DHT22;838;51.794;12.258;2023-04-01T23:02:21;5.50;57.30
1680;DHT22;838;51.794;12.258;2023-04-01T23:04:55;5.40;59.20
1680;DHT22;838;51.794;12.258;2023-04-01T23:10:44;5.40;60.30
1680;DHT22;838;51.794;12.258;2023-04-01T23:13:43;5.30;59.00
1680;DHT22;838;51.794;12.258;2023-04-01T23:16:10;5.30;59.90
1680;DHT22;838;51.794;12.258;2023-04-01T23:19:00;5.20;60.30
1680;DHT22;838;51.794;12.258;2023-04-01T23:24:30;5.30;62.00
1680;DHT22;838;51.794;12.258;2023-04-01T23:29:37;5.20;61.70
1680;DHT22;838;51.794;12.258;2023-04-01T23:32:17;5.10;61.80
1680;DHT22;838;51.794;12.258;2023-04-01T23:34:57;5.10;60.80
1680;DHT22;838;51.794;12.258;2023-04-01T23:37:24;5.00;61.40
1680;DHT22;838;51.794;12.258;2023-04-01T23:39:53;5.00;60.80
1680;DHT22;838;51.794;12.258;2023-04-01T23:42:26;5.10;61.40
1680;DHT22;838;51.794;12.258;2023-04-01T23:44:56;5.10;58.40
1680;DHT22;838;51.794;12.258;2023-04-01T23:47:31;5.10;59.70
1680;DHT22;838;51.794;12.258;2023-04-01T23:50:21;5.10;58.90
1680;DHT22;838;51.794;12.258;2023-04-01T23:52:53;5.10;58.70
1680;DHT22;838;51.794;12.258;2023-04-01T23:55:27;5.00;59.60
